Terminal Aerodrome Forecast
Issued by NWS Twin Cities, MN

Home | Current Version | Previous Version | Text Only | Print | Product List | Glossary On
Versions: 1 2 3 4 5 6 7 8 9 10 11 12 13
000
FTUS43 KMPX 240500
TAFSTC
TAF
KSTC 240520Z 2406/2506 11010KT P6SM SCT015 OVC040
     FM240900 12012KT 4SM BR SCT007 BKN012
     FM241200 12008KT 5SM -RA BR SCT007 OVC015
      TEMPO 2414/2418 2SM -RA BR BKN007
     FM241800 36005KT 4SM -RA BR SCT007 OVC015
     FM242100 32007KT 5SM BR OVC020
     FM250000 29006KT P6SM SCT050=

USA.gov is the U.S. government's official web portal to all federal, state and local government web resources and services.